sensor_id;sensor_type;location;lat;lon;timestamp;P1;durP1;ratioP1;P2;durP2;ratioP2
79308;SDS011;68767;53.078;7.386;2024-02-21T00:00:39;42.67;;;17.23;;
79308;SDS011;68767;53.078;7.386;2024-02-21T00:03:08;43.13;;;14.73;;
79308;SDS011;68767;53.078;7.386;2024-02-21T00:05:35;49.35;;;15.27;;
79308;SDS011;68767;53.078;7.386;2024-02-21T00:08:02;31.13;;;11.50;;
79308;SDS011;68767;53.078;7.386;2024-02-21T00:10:32;36.45;;;14.27;;
79308;SDS011;68767;53.078;7.386;2024-02-21T00:12:59;31.77;;;13.13;;
79308;SDS011;68767;53.078;7.386;2024-02-21T00:15:26;45.80;;;16.33;;
79308;SDS011;68767;53.078;7.386;2024-02-21T00:17:53;44.85;;;15.02;;
79308;SDS011;68767;53.078;7.386;2024-02-21T00:20:20;32.42;;;10.52;;
79308;SDS011;68767;53.078;7.386;2024-02-21T00:22:47;35.22;;;13.73;;
79308;SDS011;68767;53.078;7.386;2024-02-21T00:25:14;38.95;;;11.75;;
79308;SDS011;68767;53.078;7.386;2024-02-21T00:27:42;43.83;;;13.02;;
79308;SDS011;68767;53.078;7.386;2024-02-21T00:30:09;33.88;;;13.57;;
79308;SDS011;68767;53.078;7.386;2024-02-21T00:32:37;44.85;;;14.80;;
79308;SDS011;68767;53.078;7.386;2024-02-21T00:35:04;30.80;;;11.95;;
79308;SDS011;68767;53.078;7.386;2024-02-21T00:37:31;35.00;;;12.82;;
79308;SDS011;68767;53.078;7.386;2024-02-21T00:39:58;36.95;;;11.98;;
79308;SDS011;68767;53.078;7.386;2024-02-21T00:42:25;30.92;;;10.75;;
79308;SDS011;68767;53.078;7.386;2024-02-21T00:44:52;35.05;;;14.27;;
79308;SDS011;68767;53.078;7.386;2024-02-21T00:47:19;37.80;;;13.82;;
79308;SDS011;68767;53.078;7.386;2024-02-21T00:49:46;38.95;;;14.30;;
79308;SDS011;68767;53.078;7.386;2024-02-21T00:52:13;35.92;;;12.65;;
79308;SDS011;68767;53.078;7.386;2024-02-21T00:54:40;27.85;;;12.10;;
79308;SDS011;68767;53.078;7.386;2024-02-21T00:57:18;29.33;;;10.75;;
79308;SDS011;68767;53.078;7.386;2024-02-21T00:59:46;29.17;;;12.68;;
79308;SDS011;68767;53.078;7.386;2024-02-21T01:02:13;39.70;;;14.40;;
79308;SDS011;68767;53.078;7.386;2024-02-21T01:04:40;33.55;;;9.43;;
79308;SDS011;68767;53.078;7.386;2024-02-21T01:07:08;38.67;;;13.80;;
79308;SDS011;68767;53.078;7.386;2024-02-21T01:09:34;28.60;;;11.55;;
79308;SDS011;68767;53.078;7.386;2024-02-21T01:12:01;40.90;;;13.93;;
79308;SDS011;68767;53.078;7.386;2024-02-21T01:14:28;43.70;;;14.02;;
79308;SDS011;68767;53.078;7.386;2024-02-21T01:16:55;32.28;;;12.65;;
79308;SDS011;68767;53.078;7.386;2024-02-21T01:19:22;31.95;;;13.02;;
79308;SDS011;68767;53.078;7.386;2024-02-21T01:21:50;50.42;;;14.45;;
79308;SDS011;68767;53.078;7.386;2024-02-21T01:24:17;32.97;;;13.60;;
79308;SDS011;68767;53.078;7.386;2024-02-21T01:26:44;27.80;;;10.07;;
79308;SDS011;68767;53.078;7.386;2024-02-21T01:29:11;31.90;;;11.30;;
79308;SDS011;68767;53.078;7.386;2024-02-21T01:31:38;36.28;;;13.10;;
79308;SDS011;68767;53.078;7.386;2024-02-21T01:34:05;25.13;;;9.68;;
79308;SDS011;68767;53.078;7.386;2024-02-21T01:36:33;29.58;;;9.88;;
79308;SDS011;68767;53.078;7.386;2024-02-21T01:39:00;25.92;;;11.32;;
79308;SDS011;68767;53.078;7.386;2024-02-21T01:41:29;34.08;;;10.93;;
79308;SDS011;68767;53.078;7.386;2024-02-21T01:43:57;31.73;;;10.50;;
79308;SDS011;68767;53.078;7.386;2024-02-21T01:46:24;34.90;;;11.65;;
79308;SDS011;68767;53.078;7.386;2024-02-21T01:48:55;25.98;;;10.50;;
79308;SDS011;68767;53.078;7.386;2024-02-21T01:51:24;25.95;;;9.48;;
79308;SDS011;68767;53.078;7.386;2024-02-21T01:53:51;33.47;;;10.43;;
79308;SDS011;68767;53.078;7.386;2024-02-21T01:56:22;19.42;;;9.07;;
79308;SDS011;68767;53.078;7.386;2024-02-21T01:58:49;34.80;;;12.27;;
79308;SDS011;68767;53.078;7.386;2024-02-21T02:01:17;24.63;;;12.05;;
79308;SDS011;68767;53.078;7.386;2024-02-21T02:03:47;25.42;;;10.32;;
79308;SDS011;68767;53.078;7.386;2024-02-21T02:06:16;25.73;;;9.50;;
79308;SDS011;68767;53.078;7.386;2024-02-21T02:08:43;26.98;;;9.38;;
79308;SDS011;68767;53.078;7.386;2024-02-21T02:11:12;24.75;;;8.68;;
79308;SDS011;68767;53.078;7.386;2024-02-21T02:13:40;27.83;;;9.45;;
79308;SDS011;68767;53.078;7.386;2024-02-21T02:16:07;16.98;;;7.22;;
79308;SDS011;68767;53.078;7.386;2024-02-21T02:18:34;24.30;;;8.38;;
79308;SDS011;68767;53.078;7.386;2024-02-21T02:21:03;19.83;;;8.82;;
79308;SDS011;68767;53.078;7.386;2024-02-21T02:23:36;23.02;;;7.03;;
79308;SDS011;68767;53.078;7.386;2024-02-21T02:26:03;21.35;;;9.07;;
79308;SDS011;68767;53.078;7.386;2024-02-21T02:28:30;29.33;;;8.45;;
79308;SDS011;68767;53.078;7.386;2024-02-21T02:30:57;26.15;;;9.65;;
79308;SDS011;68767;53.078;7.386;2024-02-21T02:33:24;23.67;;;9.23;;
79308;SDS011;68767;53.078;7.386;2024-02-21T02:35:51;33.85;;;11.40;;
79308;SDS011;68767;53.078;7.386;2024-02-21T02:38:18;36.20;;;8.77;;
79308;SDS011;68767;53.078;7.386;2024-02-21T02:40:45;16.63;;;7.65;;
79308;SDS011;68767;53.078;7.386;2024-02-21T02:43:12;27.50;;;11.43;;
79308;SDS011;68767;53.078;7.386;2024-02-21T02:45:39;16.75;;;7.80;;
79308;SDS011;68767;53.078;7.386;2024-02-21T02:48:06;28.02;;;10.30;;
79308;SDS011;68767;53.078;7.386;2024-02-21T02:50:34;50.55;;;13.13;;
79308;SDS011;68767;53.078;7.386;2024-02-21T02:53:01;59.55;;;19.50;;
79308;SDS011;68767;53.078;7.386;2024-02-21T02:55:28;30.10;;;10.40;;
79308;SDS011;68767;53.078;7.386;2024-02-21T02:57:55;33.17;;;11.85;;
79308;SDS011;68767;53.078;7.386;2024-02-21T03:00:22;29.25;;;9.50;;
79308;SDS011;68767;53.078;7.386;2024-02-21T03:02:49;28.55;;;10.35;;
79308;SDS011;68767;53.078;7.386;2024-02-21T03:05:17;24.95;;;10.48;;
79308;SDS011;68767;53.078;7.386;2024-02-21T03:07:48;28.88;;;10.30;;
79308;SDS011;68767;53.078;7.386;2024-02-21T03:10:16;24.95;;;9.25;;
79308;SDS011;68767;53.078;7.386;2024-02-21T03:12:44;31.50;;;11.25;;
79308;SDS011;68767;53.078;7.386;2024-02-21T03:15:12;29.23;;;10.35;;
79308;SDS011;68767;53.078;7.386;2024-02-21T03:17:40;25.67;;;10.77;;
79308;SDS011;68767;53.078;7.386;2024-02-21T03:20:08;21.70;;;8.75;;
79308;SDS011;68767;53.078;7.386;2024-02-21T03:22:38;36.92;;;12.27;;
79308;SDS011;68767;53.078;7.386;2024-02-21T03:25:06;24.65;;;11.20;;
79308;SDS011;68767;53.078;7.386;2024-02-21T03:27:34;41.45;;;13.27;;
79308;SDS011;68767;53.078;7.386;2024-02-21T03:30:01;27.27;;;10.05;;
79308;SDS011;68767;53.078;7.386;2024-02-21T03:32:28;25.92;;;10.18;;
79308;SDS011;68767;53.078;7.386;2024-02-21T03:34:56;22.50;;;9.50;;
79308;SDS011;68767;53.078;7.386;2024-02-21T03:37:23;36.10;;;12.32;;
79308;SDS011;68767;53.078;7.386;2024-02-21T03:39:50;24.65;;;9.68;;
79308;SDS011;68767;53.078;7.386;2024-02-21T03:42:17;31.67;;;10.93;;
79308;SDS011;68767;53.078;7.386;2024-02-21T03:44:44;24.65;;;10.20;;
79308;SDS011;68767;53.078;7.386;2024-02-21T03:47:11;24.90;;;9.68;;
79308;SDS011;68767;53.078;7.386;2024-02-21T03:49:38;26.50;;;10.02;;
79308;SDS011;68767;53.078;7.386;2024-02-21T03:52:06;25.38;;;9.95;;
79308;SDS011;68767;53.078;7.386;2024-02-21T03:54:33;36.05;;;12.90;;
79308;SDS011;68767;53.078;7.386;2024-02-21T03:57:00;31.92;;;10.73;;
79308;SDS011;68767;53.078;7.386;2024-02-21T03:59:27;35.65;;;11.80;;
79308;SDS011;68767;53.078;7.386;2024-02-21T04:01:54;28.05;;;11.40;;
79308;SDS011;68767;53.078;7.386;2024-02-21T04:04:22;25.25;;;10.05;;
79308;SDS011;68767;53.078;7.386;2024-02-21T04:06:50;20.73;;;10.23;;
79308;SDS011;68767;53.078;7.386;2024-02-21T04:09:17;28.23;;;9.60;;
79308;SDS011;68767;53.078;7.386;2024-02-21T04:11:44;32.40;;;11.15;;
79308;SDS011;68767;53.078;7.386;2024-02-21T04:14:12;26.35;;;10.25;;
79308;SDS011;68767;53.078;7.386;2024-02-21T04:16:39;28.65;;;12.30;;
79308;SDS011;68767;53.078;7.386;2024-02-21T04:19:06;29.88;;;10.60;;
79308;SDS011;68767;53.078;7.386;2024-02-21T04:21:34;30.98;;;9.20;;
79308;SDS011;68767;53.078;7.386;2024-02-21T04:24:02;27.00;;;11.40;;
79308;SDS011;68767;53.078;7.386;2024-02-21T04:26:33;26.40;;;10.15;;
79308;SDS011;68767;53.078;7.386;2024-02-21T04:29:01;28.95;;;10.93;;
79308;SDS011;68767;53.078;7.386;2024-02-21T04:31:28;26.90;;;9.70;;
79308;SDS011;68767;53.078;7.386;2024-02-21T04:33:56;29.40;;;9.25;;
79308;SDS011;68767;53.078;7.386;2024-02-21T04:36:23;31.02;;;9.32;;
79308;SDS011;68767;53.078;7.386;2024-02-21T04:38:51;23.27;;;9.25;;
79308;SDS011;68767;53.078;7.386;2024-02-21T04:41:18;33.63;;;9.95;;
79308;SDS011;68767;53.078;7.386;2024-02-21T04:43:48;21.80;;;8.63;;
79308;SDS011;68767;53.078;7.386;2024-02-21T04:46:15;26.27;;;8.93;;
79308;SDS011;68767;53.078;7.386;2024-02-21T04:48:42;18.30;;;7.20;;
79308;SDS011;68767;53.078;7.386;2024-02-21T04:51:11;20.15;;;9.02;;
79308;SDS011;68767;53.078;7.386;2024-02-21T04:53:38;23.58;;;9.65;;
79308;SDS011;68767;53.078;7.386;2024-02-21T04:56:05;28.95;;;9.38;;
79308;SDS011;68767;53.078;7.386;2024-02-21T04:58:33;19.00;;;8.20;;
79308;SDS011;68767;53.078;7.386;2024-02-21T05:01:00;25.38;;;8.40;;
79308;SDS011;68767;53.078;7.386;2024-02-21T05:03:27;24.67;;;8.70;;
79308;SDS011;68767;53.078;7.386;2024-02-21T05:05:54;25.58;;;10.60;;
79308;SDS011;68767;53.078;7.386;2024-02-21T05:08:21;24.88;;;6.97;;
79308;SDS011;68767;53.078;7.386;2024-02-21T05:10:48;20.15;;;8.38;;
79308;SDS011;68767;53.078;7.386;2024-02-21T05:13:15;24.27;;;9.13;;
79308;SDS011;68767;53.078;7.386;2024-02-21T05:15:42;27.38;;;12.30;;
79308;SDS011;68767;53.078;7.386;2024-02-21T05:18:09;36.90;;;13.85;;
79308;SDS011;68767;53.078;7.386;2024-02-21T05:20:36;20.90;;;8.55;;
79308;SDS011;68767;53.078;7.386;2024-02-21T05:23:03;20.88;;;8.45;;
79308;SDS011;68767;53.078;7.386;2024-02-21T05:25:31;27.10;;;8.88;;
79308;SDS011;68767;53.078;7.386;2024-02-21T05:27:58;18.85;;;5.60;;
79308;SDS011;68767;53.078;7.386;2024-02-21T05:30:29;24.77;;;9.15;;
79308;SDS011;68767;53.078;7.386;2024-02-21T05:32:56;19.85;;;8.48;;
79308;SDS011;68767;53.078;7.386;2024-02-21T05:35:27;20.13;;;8.85;;
79308;SDS011;68767;53.078;7.386;2024-02-21T05:37:54;28.80;;;8.32;;
79308;SDS011;68767;53.078;7.386;2024-02-21T05:40:26;19.88;;;8.65;;
79308;SDS011;68767;53.078;7.386;2024-02-21T05:42:53;25.42;;;9.95;;
79308;SDS011;68767;53.078;7.386;2024-02-21T05:45:20;22.48;;;8.85;;
79308;SDS011;68767;53.078;7.386;2024-02-21T05:47:47;24.65;;;10.70;;
79308;SDS011;68767;53.078;7.386;2024-02-21T05:50:14;24.50;;;8.85;;
79308;SDS011;68767;53.078;7.386;2024-02-21T05:52:41;25.63;;;10.40;;
79308;SDS011;68767;53.078;7.386;2024-02-21T05:55:08;31.95;;;10.57;;
79308;SDS011;68767;53.078;7.386;2024-02-21T05:57:35;23.48;;;8.68;;
79308;SDS011;68767;53.078;7.386;2024-02-21T06:00:03;21.67;;;8.98;;
79308;SDS011;68767;53.078;7.386;2024-02-21T06:02:37;26.65;;;10.35;;
79308;SDS011;68767;53.078;7.386;2024-02-21T06:05:04;32.33;;;11.23;;
79308;SDS011;68767;53.078;7.386;2024-02-21T06:07:34;28.38;;;9.98;;
79308;SDS011;68767;53.078;7.386;2024-02-21T06:10:01;26.67;;;9.68;;
79308;SDS011;68767;53.078;7.386;2024-02-21T06:12:29;27.30;;;9.98;;
79308;SDS011;68767;53.078;7.386;2024-02-21T06:14:56;41.03;;;12.80;;
79308;SDS011;68767;53.078;7.386;2024-02-21T06:17:23;35.08;;;11.52;;
79308;SDS011;68767;53.078;7.386;2024-02-21T06:19:50;36.40;;;12.35;;
79308;SDS011;68767;53.078;7.386;2024-02-21T06:22:17;45.17;;;13.48;;
79308;SDS011;68767;53.078;7.386;2024-02-21T06:24:44;36.05;;;11.23;;
79308;SDS011;68767;53.078;7.386;2024-02-21T06:27:12;36.95;;;11.98;;
79308;SDS011;68767;53.078;7.386;2024-02-21T06:29:41;37.38;;;12.95;;
79308;SDS011;68767;53.078;7.386;2024-02-21T06:32:08;39.85;;;12.90;;
79308;SDS011;68767;53.078;7.386;2024-02-21T06:34:35;43.60;;;13.30;;
79308;SDS011;68767;53.078;7.386;2024-02-21T06:37:02;50.13;;;14.05;;
79308;SDS011;68767;53.078;7.386;2024-02-21T06:39:29;46.25;;;14.52;;
79308;SDS011;68767;53.078;7.386;2024-02-21T06:41:57;46.13;;;13.95;;
79308;SDS011;68767;53.078;7.386;2024-02-21T06:44:29;47.22;;;14.88;;
79308;SDS011;68767;53.078;7.386;2024-02-21T06:46:56;49.88;;;16.35;;
79308;SDS011;68767;53.078;7.386;2024-02-21T06:49:23;49.80;;;15.23;;
79308;SDS011;68767;53.078;7.386;2024-02-21T06:51:51;50.03;;;14.60;;
79308;SDS011;68767;53.078;7.386;2024-02-21T06:54:18;58.55;;;14.68;;
79308;SDS011;68767;53.078;7.386;2024-02-21T06:56:44;48.22;;;15.30;;
79308;SDS011;68767;53.078;7.386;2024-02-21T06:59:11;42.95;;;14.00;;
79308;SDS011;68767;53.078;7.386;2024-02-21T07:01:46;51.65;;;14.02;;
79308;SDS011;68767;53.078;7.386;2024-02-21T07:04:15;53.90;;;13.90;;
79308;SDS011;68767;53.078;7.386;2024-02-21T07:06:42;47.92;;;16.20;;
79308;SDS011;68767;53.078;7.386;2024-02-21T07:09:09;47.92;;;13.68;;
79308;SDS011;68767;53.078;7.386;2024-02-21T07:11:36;37.80;;;12.90;;
79308;SDS011;68767;53.078;7.386;2024-02-21T07:14:03;58.75;;;15.07;;
79308;SDS011;68767;53.078;7.386;2024-02-21T07:16:30;45.03;;;14.23;;
79308;SDS011;68767;53.078;7.386;2024-02-21T07:18:59;41.65;;;12.32;;
79308;SDS011;68767;53.078;7.386;2024-02-21T07:21:27;41.90;;;13.25;;
79308;SDS011;68767;53.078;7.386;2024-02-21T07:23:54;47.63;;;12.10;;
79308;SDS011;68767;53.078;7.386;2024-02-21T07:26:21;42.47;;;14.02;;
79308;SDS011;68767;53.078;7.386;2024-02-21T07:28:48;39.95;;;12.73;;
79308;SDS011;68767;53.078;7.386;2024-02-21T07:31:16;46.67;;;13.93;;
79308;SDS011;68767;53.078;7.386;2024-02-21T07:33:43;32.70;;;10.65;;
79308;SDS011;68767;53.078;7.386;2024-02-21T07:36:10;40.08;;;12.93;;
79308;SDS011;68767;53.078;7.386;2024-02-21T07:38:38;35.08;;;11.88;;
79308;SDS011;68767;53.078;7.386;2024-02-21T07:41:05;48.90;;;14.05;;
79308;SDS011;68767;53.078;7.386;2024-02-21T07:43:32;44.47;;;13.15;;
79308;SDS011;68767;53.078;7.386;2024-02-21T07:45:59;43.90;;;13.40;;
79308;SDS011;68767;53.078;7.386;2024-02-21T07:48:26;53.35;;;14.75;;
79308;SDS011;68767;53.078;7.386;2024-02-21T07:50:53;35.03;;;13.02;;
79308;SDS011;68767;53.078;7.386;2024-02-21T07:53:20;32.92;;;10.88;;
79308;SDS011;68767;53.078;7.386;2024-02-21T07:55:47;45.38;;;12.70;;
79308;SDS011;68767;53.078;7.386;2024-02-21T07:58:14;50.17;;;13.43;;
79308;SDS011;68767;53.078;7.386;2024-02-21T08:00:41;45.75;;;14.55;;
79308;SDS011;68767;53.078;7.386;2024-02-21T08:03:08;57.42;;;12.93;;
79308;SDS011;68767;53.078;7.386;2024-02-21T08:05:35;40.33;;;12.95;;
79308;SDS011;68767;53.078;7.386;2024-02-21T08:08:03;49.03;;;14.05;;
79308;SDS011;68767;53.078;7.386;2024-02-21T08:10:31;52.15;;;13.48;;
79308;SDS011;68767;53.078;7.386;2024-02-21T08:12:58;38.20;;;13.38;;
79308;SDS011;68767;53.078;7.386;2024-02-21T08:15:25;48.80;;;15.25;;
79308;SDS011;68767;53.078;7.386;2024-02-21T08:17:56;32.83;;;10.98;;
79308;SDS011;68767;53.078;7.386;2024-02-21T08:20:26;29.73;;;11.20;;
79308;SDS011;68767;53.078;7.386;2024-02-21T08:22:54;40.55;;;12.30;;
79308;SDS011;68767;53.078;7.386;2024-02-21T08:25:21;39.60;;;12.40;;
79308;SDS011;68767;53.078;7.386;2024-02-21T08:27:48;33.97;;;11.73;;
79308;SDS011;68767;53.078;7.386;2024-02-21T08:30:15;27.42;;;11.13;;
79308;SDS011;68767;53.078;7.386;2024-02-21T08:32:42;35.22;;;12.35;;
79308;SDS011;68767;53.078;7.386;2024-02-21T08:35:09;37.70;;;12.38;;
79308;SDS011;68767;53.078;7.386;2024-02-21T08:37:37;23.05;;;9.60;;
79308;SDS011;68767;53.078;7.386;2024-02-21T08:40:04;37.10;;;12.63;;
79308;SDS011;68767;53.078;7.386;2024-02-21T08:42:35;41.63;;;13.73;;
79308;SDS011;68767;53.078;7.386;2024-02-21T08:45:03;27.42;;;12.40;;
79308;SDS011;68767;53.078;7.386;2024-02-21T08:47:31;36.55;;;13.68;;
79308;SDS011;68767;53.078;7.386;2024-02-21T08:49:58;29.83;;;12.70;;
79308;SDS011;68767;53.078;7.386;2024-02-21T08:52:30;42.85;;;15.43;;
79308;SDS011;68767;53.078;7.386;2024-02-21T08:54:57;45.92;;;15.70;;
79308;SDS011;68767;53.078;7.386;2024-02-21T08:57:24;47.95;;;16.60;;
79308;SDS011;68767;53.078;7.386;2024-02-21T08:59:51;41.58;;;16.58;;
79308;SDS011;68767;53.078;7.386;2024-02-21T09:02:18;33.20;;;12.20;;
79308;SDS011;68767;53.078;7.386;2024-02-21T09:04:45;35.70;;;14.75;;
79308;SDS011;68767;53.078;7.386;2024-02-21T09:07:13;47.17;;;16.27;;
79308;SDS011;68767;53.078;7.386;2024-02-21T09:09:40;61.75;;;18.75;;
79308;SDS011;68767;53.078;7.386;2024-02-21T09:12:07;45.80;;;17.23;;
79308;SDS011;68767;53.078;7.386;2024-02-21T09:14:36;34.88;;;15.10;;
79308;SDS011;68767;53.078;7.386;2024-02-21T09:17:07;43.45;;;16.88;;
79308;SDS011;68767;53.078;7.386;2024-02-21T09:19:35;43.53;;;16.20;;
79308;SDS011;68767;53.078;7.386;2024-02-21T09:22:02;52.67;;;17.50;;
79308;SDS011;68767;53.078;7.386;2024-02-21T09:24:29;48.33;;;17.95;;
79308;SDS011;68767;53.078;7.386;2024-02-21T09:26:57;42.47;;;15.60;;
79308;SDS011;68767;53.078;7.386;2024-02-21T09:29:24;44.72;;;16.17;;
79308;SDS011;68767;53.078;7.386;2024-02-21T09:31:53;37.10;;;13.35;;
79308;SDS011;68767;53.078;7.386;2024-02-21T09:34:20;47.15;;;17.42;;
79308;SDS011;68767;53.078;7.386;2024-02-21T09:36:48;46.45;;;17.70;;
79308;SDS011;68767;53.078;7.386;2024-02-21T09:39:16;46.42;;;16.70;;
79308;SDS011;68767;53.078;7.386;2024-02-21T09:41:45;51.45;;;16.90;;
79308;SDS011;68767;53.078;7.386;2024-02-21T09:44:22;41.75;;;16.33;;
79308;SDS011;68767;53.078;7.386;2024-02-21T09:47:01;39.92;;;16.33;;
79308;SDS011;68767;53.078;7.386;2024-02-21T09:49:33;40.40;;;15.52;;
79308;SDS011;68767;53.078;7.386;2024-02-21T09:52:03;36.38;;;16.38;;
79308;SDS011;68767;53.078;7.386;2024-02-21T09:54:34;42.58;;;17.05;;
79308;SDS011;68767;53.078;7.386;2024-02-21T09:57:02;46.03;;;16.63;;
79308;SDS011;68767;53.078;7.386;2024-02-21T09:59:31;32.53;;;13.48;;
79308;SDS011;68767;53.078;7.386;2024-02-21T10:02:00;34.72;;;15.43;;
79308;SDS011;68767;53.078;7.386;2024-02-21T10:04:29;36.28;;;15.00;;
79308;SDS011;68767;53.078;7.386;2024-02-21T10:06:56;34.97;;;13.27;;
79308;SDS011;68767;53.078;7.386;2024-02-21T10:09:24;31.40;;;14.20;;
79308;SDS011;68767;53.078;7.386;2024-02-21T10:11:55;33.85;;;14.23;;
79308;SDS011;68767;53.078;7.386;2024-02-21T10:14:34;43.05;;;13.02;;
79308;SDS011;68767;53.078;7.386;2024-02-21T10:17:00;27.42;;;12.77;;
79308;SDS011;68767;53.078;7.386;2024-02-21T10:19:28;43.13;;;14.35;;
79308;SDS011;68767;53.078;7.386;2024-02-21T10:22:03;34.05;;;14.35;;
79308;SDS011;68767;53.078;7.386;2024-02-21T10:24:31;29.15;;;11.38;;
79308;SDS011;68767;53.078;7.386;2024-02-21T10:29:33;27.73;;;12.63;;
79308;SDS011;68767;53.078;7.386;2024-02-21T10:32:05;36.67;;;14.55;;
79308;SDS011;68767;53.078;7.386;2024-02-21T10:34:33;24.42;;;9.75;;
79308;SDS011;68767;53.078;7.386;2024-02-21T10:37:01;23.13;;;10.23;;
79308;SDS011;68767;53.078;7.386;2024-02-21T10:39:32;30.10;;;11.48;;
79308;SDS011;68767;53.078;7.386;2024-02-21T10:42:01;28.92;;;10.90;;
79308;SDS011;68767;53.078;7.386;2024-02-21T10:44:32;30.73;;;9.55;;
79308;SDS011;68767;53.078;7.386;2024-02-21T10:47:01;31.58;;;11.13;;
79308;SDS011;68767;53.078;7.386;2024-02-21T10:49:36;23.42;;;10.68;;
79308;SDS011;68767;53.078;7.386;2024-02-21T10:52:15;25.13;;;10.75;;
79308;SDS011;68767;53.078;7.386;2024-02-21T10:55:03;21.90;;;9.43;;
79308;SDS011;68767;53.078;7.386;2024-02-21T10:57:37;34.53;;;10.82;;
79308;SDS011;68767;53.078;7.386;2024-02-21T11:00:05;27.08;;;10.48;;
79308;SDS011;68767;53.078;7.386;2024-02-21T11:02:34;27.70;;;10.57;;
79308;SDS011;68767;53.078;7.386;2024-02-21T11:05:02;23.63;;;9.05;;
79308;SDS011;68767;53.078;7.386;2024-02-21T11:07:31;25.90;;;9.27;;
79308;SDS011;68767;53.078;7.386;2024-02-21T11:10:00;28.65;;;10.13;;
79308;SDS011;68767;53.078;7.386;2024-02-21T11:12:27;18.98;;;8.88;;
79308;SDS011;68767;53.078;7.386;2024-02-21T11:15:03;23.02;;;9.60;;
79308;SDS011;68767;53.078;7.386;2024-02-21T11:17:32;24.20;;;8.88;;
79308;SDS011;68767;53.078;7.386;2024-02-21T11:20:12;21.05;;;7.10;;
79308;SDS011;68767;53.078;7.386;2024-02-21T11:22:41;25.83;;;9.27;;
79308;SDS011;68767;53.078;7.386;2024-02-21T11:25:09;24.92;;;9.77;;
79308;SDS011;68767;53.078;7.386;2024-02-21T11:27:38;26.45;;;9.65;;
79308;SDS011;68767;53.078;7.386;2024-02-21T11:30:05;23.13;;;10.57;;
79308;SDS011;68767;53.078;7.386;2024-02-21T11:32:33;20.13;;;8.38;;
79308;SDS011;68767;53.078;7.386;2024-02-21T11:35:00;22.45;;;7.95;;
79308;SDS011;68767;53.078;7.386;2024-02-21T11:37:32;24.40;;;9.65;;
79308;SDS011;68767;53.078;7.386;2024-02-21T11:40:01;21.33;;;9.27;;
79308;SDS011;68767;53.078;7.386;2024-02-21T11:42:30;14.50;;;6.85;;
79308;SDS011;68767;53.078;7.386;2024-02-21T11:44:57;18.48;;;7.80;;
79308;SDS011;68767;53.078;7.386;2024-02-21T11:47:27;23.17;;;7.40;;
79308;SDS011;68767;53.078;7.386;2024-02-21T11:52:23;17.58;;;7.90;;
79308;SDS011;68767;53.078;7.386;2024-02-21T11:54:53;19.65;;;8.43;;
79308;SDS011;68767;53.078;7.386;2024-02-21T11:57:23;25.58;;;6.78;;
79308;SDS011;68767;53.078;7.386;2024-02-21T11:59:53;21.75;;;8.63;;
79308;SDS011;68767;53.078;7.386;2024-02-21T12:02:26;26.25;;;6.93;;
79308;SDS011;68767;53.078;7.386;2024-02-21T12:04:54;11.60;;;5.75;;
79308;SDS011;68767;53.078;7.386;2024-02-21T12:07:21;23.83;;;7.95;;
79308;SDS011;68767;53.078;7.386;2024-02-21T12:09:50;16.48;;;7.45;;
79308;SDS011;68767;53.078;7.386;2024-02-21T12:12:19;15.48;;;6.18;;
79308;SDS011;68767;53.078;7.386;2024-02-21T12:14:53;19.52;;;8.02;;
79308;SDS011;68767;53.078;7.386;2024-02-21T12:17:22;13.32;;;6.57;;
79308;SDS011;68767;53.078;7.386;2024-02-21T12:19:50;18.23;;;7.32;;
79308;SDS011;68767;53.078;7.386;2024-02-21T12:22:18;15.70;;;5.43;;
79308;SDS011;68767;53.078;7.386;2024-02-21T12:24:45;20.33;;;7.65;;
79308;SDS011;68767;53.078;7.386;2024-02-21T12:27:15;16.80;;;7.55;;
79308;SDS011;68767;53.078;7.386;2024-02-21T12:29:42;13.85;;;6.43;;
79308;SDS011;68767;53.078;7.386;2024-02-21T12:32:09;15.07;;;6.78;;
79308;SDS011;68767;53.078;7.386;2024-02-21T12:34:37;14.98;;;6.80;;
79308;SDS011;68767;53.078;7.386;2024-02-21T12:37:19;16.20;;;6.57;;
79308;SDS011;68767;53.078;7.386;2024-02-21T12:39:47;11.27;;;5.40;;
79308;SDS011;68767;53.078;7.386;2024-02-21T12:42:15;15.68;;;5.72;;
79308;SDS011;68767;53.078;7.386;2024-02-21T12:44:42;14.43;;;6.38;;
79308;SDS011;68767;53.078;7.386;2024-02-21T12:47:10;16.90;;;6.40;;
79308;SDS011;68767;53.078;7.386;2024-02-21T12:49:37;18.40;;;6.38;;
79308;SDS011;68767;53.078;7.386;2024-02-21T12:52:10;13.48;;;6.25;;
79308;SDS011;68767;53.078;7.386;2024-02-21T12:54:38;15.35;;;6.45;;
79308;SDS011;68767;53.078;7.386;2024-02-21T12:57:05;16.10;;;5.63;;
79308;SDS011;68767;53.078;7.386;2024-02-21T12:59:32;14.45;;;6.18;;
79308;SDS011;68767;53.078;7.386;2024-02-21T13:01:59;11.77;;;5.45;;
79308;SDS011;68767;53.078;7.386;2024-02-21T13:04:26;12.27;;;5.57;;
79308;SDS011;68767;53.078;7.386;2024-02-21T13:06:54;14.48;;;6.20;;
79308;SDS011;68767;53.078;7.386;2024-02-21T13:09:22;17.33;;;5.85;;
79308;SDS011;68767;53.078;7.386;2024-02-21T13:11:49;10.70;;;4.53;;
79308;SDS011;68767;53.078;7.386;2024-02-21T13:14:18;13.93;;;5.93;;
79308;SDS011;68767;53.078;7.386;2024-02-21T13:16:45;14.35;;;6.13;;
79308;SDS011;68767;53.078;7.386;2024-02-21T13:19:13;9.45;;;4.35;;
79308;SDS011;68767;53.078;7.386;2024-02-21T13:21:44;13.73;;;5.35;;
79308;SDS011;68767;53.078;7.386;2024-02-21T13:24:12;13.75;;;5.70;;
79308;SDS011;68767;53.078;7.386;2024-02-21T13:26:39;14.32;;;4.38;;
79308;SDS011;68767;53.078;7.386;2024-02-21T13:29:06;12.40;;;5.63;;
79308;SDS011;68767;53.078;7.386;2024-02-21T13:31:33;13.20;;;4.82;;
79308;SDS011;68767;53.078;7.386;2024-02-21T13:34:00;10.57;;;4.25;;
79308;SDS011;68767;53.078;7.386;2024-02-21T13:36:27;7.03;;;3.80;;
79308;SDS011;68767;53.078;7.386;2024-02-21T13:38:55;10.85;;;4.72;;
79308;SDS011;68767;53.078;7.386;2024-02-21T13:41:21;13.30;;;4.07;;
79308;SDS011;68767;53.078;7.386;2024-02-21T13:43:50;11.93;;;4.80;;
79308;SDS011;68767;53.078;7.386;2024-02-21T13:46:17;10.18;;;4.60;;
79308;SDS011;68767;53.078;7.386;2024-02-21T13:48:44;12.55;;;4.13;;
79308;SDS011;68767;53.078;7.386;2024-02-21T13:51:11;11.55;;;4.47;;
79308;SDS011;68767;53.078;7.386;2024-02-21T13:53:38;9.98;;;3.90;;
79308;SDS011;68767;53.078;7.386;2024-02-21T13:56:05;6.57;;;3.08;;
79308;SDS011;68767;53.078;7.386;2024-02-21T13:58:33;7.75;;;3.65;;
79308;SDS011;68767;53.078;7.386;2024-02-21T14:01:00;13.13;;;3.75;;
79308;SDS011;68767;53.078;7.386;2024-02-21T14:03:27;7.70;;;3.30;;
79308;SDS011;68767;53.078;7.386;2024-02-21T14:05:54;7.95;;;3.30;;
79308;SDS011;68767;53.078;7.386;2024-02-21T14:08:21;7.70;;;3.33;;
79308;SDS011;68767;53.078;7.386;2024-02-21T14:10:51;7.13;;;3.17;;
79308;SDS011;68767;53.078;7.386;2024-02-21T14:13:18;6.57;;;3.08;;
79308;SDS011;68767;53.078;7.386;2024-02-21T14:15:46;9.43;;;4.18;;
79308;SDS011;68767;53.078;7.386;2024-02-21T14:18:14;6.57;;;3.47;;
79308;SDS011;68767;53.078;7.386;2024-02-21T14:20:43;12.13;;;5.53;;
79308;SDS011;68767;53.078;7.386;2024-02-21T14:23:10;8.82;;;4.10;;
79308;SDS011;68767;53.078;7.386;2024-02-21T14:25:37;8.20;;;3.65;;
79308;SDS011;68767;53.078;7.386;2024-02-21T14:28:07;8.18;;;4.05;;
79308;SDS011;68767;53.078;7.386;2024-02-21T14:33:02;8.80;;;4.20;;
79308;SDS011;68767;53.078;7.386;2024-02-21T14:35:30;9.32;;;4.63;;
79308;SDS011;68767;53.078;7.386;2024-02-21T14:37:57;10.85;;;4.78;;
79308;SDS011;68767;53.078;7.386;2024-02-21T14:40:24;8.65;;;4.43;;